Time,TemperatureF,DewpointF,PressureIn,WindDirection,WindDirectionDegrees,WindSpeedMPH,WindSpeedGustMPH,Humidity,HourlyPrecipIn,Conditions,Clouds,dailyrainin,SoftwareType,DateUTC
2013-02-09 00:01:00,26.4,25.7,29.77,NW,304,2.0,2.0,97,0.00,,,0.00,Wunderground v.1.15,2013-02-09 05:01:00,
2013-02-09 00:05:00,26.4,25.7,29.77,NW,316,1.0,2.0,97,0.00,,,0.00,Wunderground v.1.15,2013-02-09 05:05:00,
2013-02-09 00:11:00,26.4,25.7,29.78,NNE,33,1.0,2.0,97,0.00,,,0.00,Wunderground v.1.15,2013-02-09 05:11:00,
2013-02-09 00:17:00,26.3,25.6,29.78,NW,323,3.0,3.0,97,0.00,,,0.00,Wunderground v.1.15,2013-02-09 05:17:00,
2013-02-09 00:26:00,26.3,25.6,29.78,NW,311,2.0,2.0,97,0.00,,,0.00,Wunderground v.1.15,2013-02-09 05:26:00,
2013-02-09 00:32:00,26.3,25.6,29.79,North,357,0.0,2.0,97,0.00,,,0.00,Wunderground v.1.15,2013-02-09 05:32:00,
2013-02-09 00:40:00,26.3,25.6,29.79,North,6,0.0,4.0,97,0.00,,,0.00,Wunderground v.1.15,2013-02-09 05:40:00,
2013-02-09 00:46:00,26.2,25.5,29.78,NNW,327,3.0,3.0,97,0.00,,,0.00,Wunderground v.1.15,2013-02-09 05:46:00,
2013-02-09 00:51:00,26.2,25.5,29.78,NNW,329,1.0,3.0,97,0.00,,,0.00,Wunderground v.1.15,2013-02-09 05:51:00,
2013-02-09 00:57:00,26.2,25.5,29.79,North,3,0.0,3.0,97,0.00,,,0.00,Wunderground v.1.15,2013-02-09 05:57:00,
2013-02-09 01:05:00,26.2,25.5,29.78,North,3,0.0,1.0,97,0.00,,,0.00,Wunderground v.1.15,2013-02-09 06:05:00,
2013-02-09 01:11:00,26.2,25.5,29.79,North,3,0.0,0.0,97,0.00,,,0.00,Wunderground v.1.15,2013-02-09 06:11:00,
2013-02-09 01:16:00,26.2,25.5,29.79,North,3,0.0,0.0,97,0.00,,,0.00,Wunderground v.1.15,2013-02-09 06:16:00,
2013-02-09 01:22:00,26.3,25.6,29.79,North,3,0.0,0.0,97,0.00,,,0.00,Wunderground v.1.15,2013-02-09 06:22:00,
2013-02-09 01:31:00,26.4,25.7,29.79,North,3,0.0,0.0,97,0.00,,,0.00,Wunderground v.1.15,2013-02-09 06:31:00,
2013-02-09 01:37:00,26.4,25.7,29.79,North,3,0.0,0.0,97,0.00,,,0.00,Wunderground v.1.15,2013-02-09 06:37:00,
2013-02-09 01:46:00,26.5,25.8,29.80,North,3,0.0,0.0,97,0.00,,,0.00,Wunderground v.1.15,2013-02-09 06:46:00,
2013-02-09 01:51:00,26.5,25.8,29.80,North,3,0.0,0.0,97,0.00,,,0.00,Wunderground v.1.15,2013-02-09 06:51:00,
2013-02-09 01:57:00,26.6,25.9,29.80,North,3,0.0,0.0,97,0.00,,,0.00,Wunderground v.1.15,2013-02-09 06:57:00,
2013-02-09 02:02:00,26.7,26.0,29.80,North,3,0.0,0.0,97,0.00,,,0.00,Wunderground v.1.15,2013-02-09 07:02:00,
2013-02-09 02:07:00,26.7,26.0,29.80,North,3,0.0,0.0,97,0.00,,,0.00,Wunderground v.1.15,2013-02-09 07:07:00,
2013-02-09 02:12:00,26.8,26.1,29.80,North,3,0.0,0.0,97,0.00,,,0.00,Wunderground v.1.15,2013-02-09 07:12:00,
2013-02-09 02:17:00,26.9,26.2,29.80,North,3,0.0,0.0,97,0.00,,,0.00,Wunderground v.1.15,2013-02-09 07:17:00,
2013-02-09 02:22:00,26.9,26.2,29.81,North,3,0.0,0.0,97,0.00,,,0.00,Wunderground v.1.15,2013-02-09 07:22:00,
2013-02-09 02:27:00,27.0,26.5,29.80,North,3,0.0,0.0,98,0.00,,,0.00,Wunderground v.1.15,2013-02-09 07:27:00,
2013-02-09 02:32:00,27.2,26.7,29.81,North,3,0.0,0.0,98,0.00,,,0.00,Wunderground v.1.15,2013-02-09 07:32:00,
2013-02-09 02:37:00,27.2,26.7,29.81,North,3,0.0,0.0,98,0.00,,,0.00,Wunderground v.1.15,2013-02-09 07:37:00,
2013-02-09 02:42:00,27.4,26.9,29.80,North,3,0.0,0.0,98,0.00,,,0.00,Wunderground v.1.15,2013-02-09 07:42:00,
2013-02-09 02:47:00,27.5,27.0,29.81,North,3,0.0,0.0,98,0.00,,,0.00,Wunderground v.1.15,2013-02-09 07:47:00,
2013-02-09 02:52:00,27.5,27.0,29.81,North,3,0.0,0.0,98,0.00,,,0.00,Wunderground v.1.15,2013-02-09 07:52:00,
2013-02-09 02:57:00,27.6,27.1,29.81,North,3,0.0,0.0,98,0.00,,,0.00,Wunderground v.1.15,2013-02-09 07:57:00,
2013-02-09 03:02:00,27.6,27.1,29.81,North,3,0.0,0.0,98,0.00,,,0.00,Wunderground v.1.15,2013-02-09 08:02:00,
2013-02-09 03:07:00,27.6,27.1,29.81,North,3,0.0,0.0,98,0.00,,,0.00,Wunderground v.1.15,2013-02-09 08:07:00,
2013-02-09 03:12:00,27.7,27.2,29.81,North,3,0.0,0.0,98,0.00,,,0.00,Wunderground v.1.15,2013-02-09 08:12:00,
2013-02-09 03:17:00,27.7,27.2,29.82,North,3,0.0,0.0,98,0.00,,,0.00,Wunderground v.1.15,2013-02-09 08:17:00,
2013-02-09 03:22:00,27.7,27.2,29.82,North,3,0.0,0.0,98,0.00,,,0.00,Wunderground v.1.15,2013-02-09 08:22:00,
2013-02-09 03:27:00,27.7,27.2,29.82,North,3,0.0,0.0,98,0.00,,,0.00,Wunderground v.1.15,2013-02-09 08:27:00,
2013-02-09 03:32:00,27.6,27.1,29.82,North,3,0.0,0.0,98,0.00,,,0.00,Wunderground v.1.15,2013-02-09 08:32:00,
2013-02-09 03:38:00,27.6,27.1,29.82,North,3,0.0,0.0,98,0.00,,,0.00,Wunderground v.1.15,2013-02-09 08:38:00,
2013-02-09 03:43:00,27.6,27.1,29.82,North,3,0.0,0.0,98,0.00,,,0.00,Wunderground v.1.15,2013-02-09 08:43:00,
2013-02-09 03:48:00,27.6,26.9,29.83,North,3,0.0,0.0,97,0.00,,,0.00,Wunderground v.1.15,2013-02-09 08:48:00,
2013-02-09 03:53:00,27.6,26.9,29.83,North,3,0.0,0.0,97,0.00,,,0.00,Wunderground v.1.15,2013-02-09 08:53:00,
2013-02-09 03:58:00,27.5,26.8,29.83,North,3,0.0,0.0,97,0.00,,,0.00,Wunderground v.1.15,2013-02-09 08:58:00,
2013-02-09 04:03:00,27.5,26.8,29.83,North,3,0.0,0.0,97,0.00,,,0.00,Wunderground v.1.15,2013-02-09 09:03:00,
2013-02-09 04:08:00,27.3,26.6,29.83,North,3,0.0,0.0,97,0.00,,,0.00,Wunderground v.1.15,2013-02-09 09:08:00,
2013-02-09 04:13:00,27.2,26.5,29.84,North,3,0.0,0.0,97,0.00,,,0.00,Wunderground v.1.15,2013-02-09 09:13:00,
2013-02-09 04:18:00,27.1,26.4,29.84,North,5,0.0,0.0,97,0.00,,,0.00,Wunderground v.1.15,2013-02-09 09:18:00,
2013-02-09 04:26:00,26.9,25.9,29.84,North,4,0.0,0.0,96,0.00,,,0.00,Wunderground v.1.15,2013-02-09 09:26:00,
2013-02-09 04:31:00,26.8,25.8,29.84,North,4,0.0,0.0,96,0.00,,,0.00,Wunderground v.1.15,2013-02-09 09:31:00,
2013-02-09 04:36:00,26.8,25.8,29.84,North,4,0.0,0.0,96,0.00,,,0.00,Wunderground v.1.15,2013-02-09 09:36:00,
2013-02-09 04:41:00,26.7,25.7,29.85,North,4,0.0,0.0,96,0.00,,,0.00,Wunderground v.1.15,2013-02-09 09:41:00,
2013-02-09 04:47:00,26.7,25.7,29.85,North,4,0.0,0.0,96,0.00,,,0.00,Wunderground v.1.15,2013-02-09 09:47:00,
2013-02-09 04:52:00,26.6,25.6,29.85,North,4,0.0,0.0,96,0.00,,,0.00,Wunderground v.1.15,2013-02-09 09:52:00,
2013-02-09 04:57:00,26.6,25.6,29.84,North,4,0.0,0.0,96,0.00,,,0.00,Wunderground v.1.15,2013-02-09 09:57:00,
2013-02-09 05:02:00,26.5,25.5,29.84,North,4,0.0,0.0,96,0.00,,,0.00,Wunderground v.1.15,2013-02-09 10:02:00,
2013-02-09 05:07:00,26.5,25.5,29.84,North,4,0.0,0.0,96,0.00,,,0.00,Wunderground v.1.15,2013-02-09 10:07:00,
2013-02-09 05:12:00,26.5,25.5,29.84,North,4,0.0,0.0,96,0.00,,,0.00,Wunderground v.1.15,2013-02-09 10:12:00,
2013-02-09 05:17:00,26.5,25.5,29.85,North,4,0.0,0.0,96,0.00,,,0.00,Wunderground v.1.15,2013-02-09 10:17:00,
2013-02-09 05:22:00,26.6,25.6,29.84,North,4,0.0,0.0,96,0.00,,,0.00,Wunderground v.1.15,2013-02-09 10:22:00,
2013-02-09 05:27:00,26.7,25.7,29.84,North,4,0.0,0.0,96,0.00,,,0.00,Wunderground v.1.15,2013-02-09 10:27:00,
2013-02-09 05:32:00,26.7,25.7,29.85,North,4,0.0,0.0,96,0.00,,,0.00,Wunderground v.1.15,2013-02-09 10:32:00,
2013-02-09 05:37:00,26.8,25.8,29.85,North,4,0.0,0.0,96,0.00,,,0.00,Wunderground v.1.15,2013-02-09 10:37:00,
2013-02-09 05:42:00,26.8,25.6,29.85,North,352,0.0,0.0,95,0.00,,,0.00,Wunderground v.1.15,2013-02-09 10:42:00,
2013-02-09 05:47:00,26.9,25.7,29.85,North,351,0.0,0.0,95,0.00,,,0.00,Wunderground v.1.15,2013-02-09 10:47:00,
2013-02-09 05:52:00,26.9,25.7,29.85,North,350,0.0,0.0,95,0.00,,,0.00,Wunderground v.1.15,2013-02-09 10:52:00,
2013-02-09 05:57:00,26.9,25.7,29.85,North,350,0.0,0.0,95,0.00,,,0.00,Wunderground v.1.15,2013-02-09 10:57:00,
2013-02-09 06:02:00,27.0,25.5,29.85,North,352,0.0,0.0,94,0.00,,,0.00,Wunderground v.1.15,2013-02-09 11:02:00,
2013-02-09 06:07:00,27.0,25.5,29.86,NNW,342,0.0,0.0,94,0.00,,,0.00,Wunderground v.1.15,2013-02-09 11:07:00,
2013-02-09 06:12:00,27.0,25.5,29.86,NNW,330,0.0,0.0,94,0.00,,,0.00,Wunderground v.1.15,2013-02-09 11:12:00,
2013-02-09 06:17:00,27.0,25.5,29.86,NNW,333,0.0,0.0,94,0.00,,,0.00,Wunderground v.1.15,2013-02-09 11:17:00,
2013-02-09 06:22:00,27.0,25.2,29.87,NW,325,0.0,0.0,93,0.00,,,0.00,Wunderground v.1.15,2013-02-09 11:22:00,
2013-02-09 06:27:00,27.1,25.3,29.87,NNW,329,0.0,0.0,93,0.00,,,0.00,Wunderground v.1.15,2013-02-09 11:27:00,
2013-02-09 06:32:00,27.1,25.3,29.87,NNW,339,0.0,0.0,93,0.00,,,0.00,Wunderground v.1.15,2013-02-09 11:32:00,
2013-02-09 06:37:00,27.1,25.3,29.87,NNW,329,0.0,0.0,93,0.00,,,0.00,Wunderground v.1.15,2013-02-09 11:37:00,
2013-02-09 06:42:00,27.1,25.3,29.87,NNW,327,0.0,0.0,93,0.00,,,0.00,Wunderground v.1.15,2013-02-09 11:42:00,
2013-02-09 06:48:00,27.1,25.3,29.87,NNW,337,0.0,0.0,93,0.00,,,0.00,Wunderground v.1.15,2013-02-09 11:48:00,
2013-02-09 06:52:00,27.1,25.3,29.87,NW,321,0.0,0.0,93,0.00,,,0.00,Wunderground v.1.15,2013-02-09 11:52:00,
2013-02-09 06:58:00,27.1,25.3,29.88,NNW,329,0.0,0.0,93,0.00,,,0.00,Wunderground v.1.15,2013-02-09 11:58:00,
2013-02-09 07:03:00,27.2,25.2,29.88,NNW,330,0.0,0.0,92,0.00,,,0.00,Wunderground v.1.15,2013-02-09 12:03:00,
2013-02-09 07:08:00,27.2,25.2,29.88,NW,315,0.0,0.0,92,0.00,,,0.00,Wunderground v.1.15,2013-02-09 12:08:00,
2013-02-09 07:13:00,27.3,25.3,29.89,WNW,294,0.0,0.0,92,0.00,,,0.00,Wunderground v.1.15,2013-02-09 12:13:00,
2013-02-09 07:18:00,27.4,25.4,29.89,NNW,329,0.0,0.0,92,0.00,,,0.00,Wunderground v.1.15,2013-02-09 12:18:00,
2013-02-09 07:23:00,27.5,25.2,29.89,NW,305,0.0,0.0,91,0.00,,,0.00,Wunderground v.1.15,2013-02-09 12:23:00,
2013-02-09 07:28:00,27.6,25.3,29.89,NW,305,0.0,0.0,91,0.00,,,0.00,Wunderground v.1.15,2013-02-09 12:28:00,
2013-02-09 07:33:00,27.7,25.4,29.90,NW,314,0.0,0.0,91,0.00,,,0.00,Wunderground v.1.15,2013-02-09 12:33:00,
2013-02-09 07:38:00,27.8,25.2,29.90,NNW,328,0.0,0.0,90,0.00,,,0.00,Wunderground v.1.15,2013-02-09 12:38:00,
2013-02-09 07:43:00,27.8,25.2,29.90,NW,313,0.0,0.0,90,0.00,,,0.00,Wunderground v.1.15,2013-02-09 12:43:00,
2013-02-09 07:48:00,27.8,25.2,29.90,NNW,335,0.0,0.0,90,0.00,,,0.00,Wunderground v.1.15,2013-02-09 12:48:00,
2013-02-09 07:53:00,27.7,24.9,29.91,SW,223,2.0,8.0,89,0.00,,,0.00,Wunderground v.1.15,2013-02-09 12:53:00,
2013-02-09 07:58:00,27.5,24.4,29.91,NNW,327,0.0,8.0,88,0.00,,,0.00,Wunderground v.1.15,2013-02-09 12:58:00,
2013-02-09 08:03:00,27.3,24.2,29.91,NNW,333,3.0,3.0,88,0.00,,,0.00,Wunderground v.1.15,2013-02-09 13:03:00,
2013-02-09 08:08:00,27.1,23.7,29.92,NW,321,0.0,7.0,87,0.00,,,0.00,Wunderground v.1.15,2013-02-09 13:08:00,
2013-02-09 08:13:00,27.0,23.6,29.92,WNW,289,1.0,3.0,87,0.00,,,0.00,Wunderground v.1.15,2013-02-09 13:13:00,
2013-02-09 08:18:00,26.9,23.3,29.92,WNW,294,3.0,4.0,86,0.00,,,0.00,Wunderground v.1.15,2013-02-09 13:18:00,
2013-02-09 08:23:00,26.9,23.3,29.93,West,277,0.0,4.0,86,0.00,,,0.00,Wunderground v.1.15,2013-02-09 13:23:00,
2013-02-09 08:28:00,26.7,23.1,29.93,NNW,339,2.0,4.0,86,0.00,,,0.00,Wunderground v.1.15,2013-02-09 13:28:00,
2013-02-09 08:33:00,26.5,22.6,29.93,NNW,342,1.0,6.0,85,0.00,,,0.00,Wunderground v.1.15,2013-02-09 13:33:00,
2013-02-09 08:38:00,26.4,22.8,29.94,NW,315,2.0,6.0,86,0.00,,,0.00,Wunderground v.1.15,2013-02-09 13:38:00,
2013-02-09 08:43:00,26.3,22.7,29.94,NNW,347,4.0,7.0,86,0.00,,,0.00,Wunderground v.1.15,2013-02-09 13:43:00,
2013-02-09 08:48:00,26.3,22.4,29.95,NW,315,1.0,7.0,85,0.00,,,0.00,Wunderground v.1.15,2013-02-09 13:48:00,
2013-02-09 08:53:00,26.3,22.4,29.95,NNE,15,1.0,2.0,85,0.00,,,0.00,Wunderground v.1.15,2013-02-09 13:53:00,
2013-02-09 08:58:00,26.2,22.0,29.95,NNW,329,4.0,5.0,84,0.00,,,0.00,Wunderground v.1.15,2013-02-09 13:58:00,
2013-02-09 09:03:00,26.1,21.9,29.96,WNW,302,0.0,6.0,84,0.00,,,0.00,Wunderground v.1.15,2013-02-09 14:03:00,
2013-02-09 09:08:00,26.0,21.8,29.97,NNW,334,1.0,6.0,84,0.00,,,0.00,Wunderground v.1.15,2013-02-09 14:08:00,
2013-02-09 09:13:00,25.9,21.4,29.97,North,354,2.0,4.0,83,0.00,,,0.00,Wunderground v.1.15,2013-02-09 14:13:00,
2013-02-09 09:18:00,25.9,21.4,29.98,North,356,5.0,5.0,83,0.00,,,0.00,Wunderground v.1.15,2013-02-09 14:18:00,
2013-02-09 09:23:00,25.8,21.3,29.97,West,268,2.0,3.0,83,0.00,,,0.00,Wunderground v.1.15,2013-02-09 14:23:00,
2013-02-09 09:28:00,25.8,21.3,29.98,North,3,1.0,3.0,83,0.00,,,0.00,Wunderground v.1.15,2013-02-09 14:28:00,
2013-02-09 09:33:00,25.8,21.3,29.98,NW,308,1.0,3.0,83,0.00,,,0.00,Wunderground v.1.15,2013-02-09 14:33:00,
2013-02-09 09:41:00,25.7,21.3,29.98,West,280,2.0,2.0,83,0.00,,,0.00,Wunderground v.1.15,2013-02-09 14:41:00,
2013-02-09 09:46:00,25.6,20.9,29.98,NE,35,0.0,4.0,82,0.00,,,0.00,Wunderground v.1.15,2013-02-09 14:46:00,
2013-02-09 09:51:00,25.6,20.9,29.98,West,272,3.0,3.0,82,0.00,,,0.00,Wunderground v.1.15,2013-02-09 14:51:00,
2013-02-09 09:56:00,25.6,20.9,29.98,NW,325,1.0,3.0,82,0.00,,,0.00,Wunderground v.1.15,2013-02-09 14:56:00,
2013-02-09 10:01:00,25.7,21.0,29.99,NW,308,5.0,5.0,82,0.00,,,0.00,Wunderground v.1.15,2013-02-09 15:01:00,
2013-02-09 10:06:00,25.8,20.8,29.99,NW,307,2.0,5.0,81,0.00,,,0.00,Wunderground v.1.15,2013-02-09 15:06:00,
2013-02-09 10:12:00,25.9,21.2,29.99,NNW,345,2.0,2.0,82,0.00,,,0.00,Wunderground v.1.15,2013-02-09 15:12:00,
2013-02-09 10:17:00,26.0,20.4,30.00,NNW,344,2.0,4.0,79,0.00,,,0.00,Wunderground v.1.15,2013-02-09 15:17:00,
2013-02-09 10:22:00,25.9,20.6,30.00,NNW,337,2.0,3.0,80,0.00,,,0.00,Wunderground v.1.15,2013-02-09 15:22:00,
2013-02-09 10:27:00,25.8,20.5,30.00,NW,317,1.0,7.0,80,0.00,,,0.00,Wunderground v.1.15,2013-02-09 15:27:00,
2013-02-09 10:32:00,25.8,20.5,30.00,NNW,343,2.0,3.0,80,0.00,,,0.00,Wunderground v.1.15,2013-02-09 15:32:00,
2013-02-09 10:37:00,25.9,20.9,30.01,NNW,339,2.0,4.0,81,0.00,,,0.00,Wunderground v.1.15,2013-02-09 15:37:00,
2013-02-09 10:42:00,26.0,20.4,30.01,NW,321,3.0,3.0,79,0.00,,,0.00,Wunderground v.1.15,2013-02-09 15:42:00,
2013-02-09 10:47:00,26.1,20.5,30.01,NNW,336,3.0,3.0,79,0.00,,,0.00,Wunderground v.1.15,2013-02-09 15:47:00,
2013-02-09 10:52:00,26.1,20.2,30.01,WNW,298,3.0,3.0,78,0.00,,,0.00,Wunderground v.1.15,2013-02-09 15:52:00,
2013-02-09 10:57:00,26.5,21.2,30.02,WNW,284,2.0,3.0,80,0.00,,,0.00,Wunderground v.1.15,2013-02-09 15:57:00,
2013-02-09 11:02:00,27.0,21.1,30.02,NW,315,2.0,4.0,78,0.00,,,0.00,Wunderground v.1.15,2013-02-09 16:02:00,
2013-02-09 11:07:00,27.3,20.7,30.02,NNW,340,3.0,4.0,76,0.00,,,0.00,Wunderground v.1.15,2013-02-09 16:07:00,
2013-02-09 11:12:00,27.7,21.4,30.02,NNW,343,3.0,3.0,77,0.00,,,0.00,Wunderground v.1.15,2013-02-09 16:12:00,
2013-02-09 11:17:00,27.9,21.0,30.02,WNW,294,2.0,7.0,75,0.00,,,0.00,Wunderground v.1.15,2013-02-09 16:17:00,
2013-02-09 11:22:00,28.1,21.2,30.02,WNW,289,2.0,5.0,75,0.00,,,0.00,Wunderground v.1.15,2013-02-09 16:22:00,
2013-02-09 11:27:00,28.3,21.7,30.03,WNW,284,3.0,7.0,76,0.00,,,0.00,Wunderground v.1.15,2013-02-09 16:27:00,
2013-02-09 11:32:00,28.5,21.6,30.03,North,353,4.0,5.0,75,0.00,,,0.00,Wunderground v.1.15,2013-02-09 16:32:00,
2013-02-09 11:37:00,28.8,21.6,30.02,NW,322,5.0,8.0,74,0.00,,,0.00,Wunderground v.1.15,2013-02-09 16:37:00,
2013-02-09 11:42:00,28.9,21.3,30.02,NW,306,2.0,9.0,73,0.00,,,0.00,Wunderground v.1.15,2013-02-09 16:42:00,
2013-02-09 11:48:00,28.9,21.3,30.02,NNE,13,6.0,9.0,73,0.00,,,0.00,Wunderground v.1.15,2013-02-09 16:48:00,
2013-02-09 11:56:00,29.0,21.4,30.03,NNW,338,1.0,11.0,73,0.00,,,0.00,Wunderground v.1.15,2013-02-09 16:56:00,
2013-02-09 12:01:00,29.4,21.8,30.03,NNE,18,3.0,3.0,73,0.00,,,0.00,Wunderground v.1.15,2013-02-09 17:01:00,
2013-02-09 12:06:00,29.9,21.6,30.03,NNW,334,2.0,7.0,71,0.00,,,0.00,Wunderground v.1.15,2013-02-09 17:06:00,
2013-02-09 12:11:00,30.2,21.9,30.03,North,350,2.0,7.0,71,0.00,,,0.01,Wunderground v.1.15,2013-02-09 17:11:00,
2013-02-09 12:16:00,30.3,21.3,30.03,NNW,327,2.0,9.0,69,0.00,,,0.01,Wunderground v.1.15,2013-02-09 17:16:00,
2013-02-09 12:21:00,30.4,21.4,30.03,NW,306,2.0,11.0,69,0.00,,,0.01,Wunderground v.1.15,2013-02-09 17:21:00,
2013-02-09 12:26:00,30.3,21.7,30.03,NNW,342,3.0,11.0,70,0.00,,,0.01,Wunderground v.1.15,2013-02-09 17:26:00,
2013-02-09 12:32:00,30.3,21.3,30.03,North,358,7.0,7.0,69,0.00,,,0.01,Wunderground v.1.15,2013-02-09 17:32:00,
2013-02-09 12:37:00,30.4,21.1,30.03,NW,306,4.0,10.0,68,0.00,,,0.01,Wunderground v.1.15,2013-02-09 17:37:00,
2013-02-09 12:42:00,30.4,20.7,30.03,NNW,341,3.0,7.0,67,0.00,,,0.01,Wunderground v.1.15,2013-02-09 17:42:00,
2013-02-09 12:47:00,30.6,21.3,30.03,NNW,338,9.0,9.0,68,0.00,,,0.01,Wunderground v.1.15,2013-02-09 17:47:00,
2013-02-09 12:52:00,30.7,21.0,30.03,NNW,347,4.0,5.0,67,0.00,,,0.01,Wunderground v.1.15,2013-02-09 17:52:00,
2013-02-09 12:57:00,30.8,20.8,30.04,NNW,340,6.0,6.0,66,0.00,,,0.01,Wunderground v.1.15,2013-02-09 17:57:00,
2013-02-09 13:02:00,30.6,20.9,30.04,North,1,4.0,7.0,67,0.00,,,0.01,Wunderground v.1.15,2013-02-09 18:02:00,
2013-02-09 13:07:00,30.5,20.1,30.04,North,9,6.0,11.0,65,0.00,,,0.01,Wunderground v.1.15,2013-02-09 18:07:00,
2013-02-09 13:12:00,30.3,20.6,30.04,NW,310,2.0,5.0,67,0.00,,,0.02,Wunderground v.1.15,2013-02-09 18:12:00,
2013-02-09 13:17:00,30.5,21.2,30.05,NNW,333,2.0,10.0,68,0.11,,,0.03,Wunderground v.1.15,2013-02-09 18:17:00,
2013-02-09 13:22:00,30.6,21.3,30.05,WNW,298,4.0,7.0,68,0.09,,,0.03,Wunderground v.1.15,2013-02-09 18:22:00,
2013-02-09 13:27:00,30.6,21.3,30.05,NNW,332,2.0,13.0,68,0.06,,,0.04,Wunderground v.1.15,2013-02-09 18:27:00,
2013-02-09 13:32:00,30.6,19.9,30.05,NW,311,6.0,6.0,64,0.06,,,0.04,Wunderground v.1.15,2013-02-09 18:32:00,
2013-02-09 13:37:00,30.8,20.0,30.05,North,7,8.0,8.0,64,0.06,,,0.05,Wunderground v.1.15,2013-02-09 18:37:00,
2013-02-09 13:42:00,30.9,19.8,30.05,NNW,346,3.0,6.0,63,0.06,,,0.05,Wunderground v.1.15,2013-02-09 18:42:00,
2013-02-09 13:48:00,31.2,19.7,30.05,NW,307,5.0,6.0,62,0.08,,,0.06,Wunderground v.1.15,2013-02-09 18:48:00,
2013-02-09 13:53:00,31.2,19.7,30.06,NNW,343,2.0,8.0,62,0.06,,,0.07,Wunderground v.1.15,2013-02-09 18:53:00,
2013-02-09 14:01:00,31.5,20.0,30.06,NNW,334,2.0,4.0,62,0.06,,,0.07,Wunderground v.1.15,2013-02-09 19:01:00,
2013-02-09 14:06:00,31.6,19.7,30.07,WNW,301,1.0,5.0,61,0.06,,,0.08,Wunderground v.1.15,2013-02-09 19:06:00,
2013-02-09 14:11:00,31.7,19.0,30.07,NW,325,1.0,6.0,59,0.06,,,0.08,Wunderground v.1.15,2013-02-09 19:11:00,
2013-02-09 14:16:00,31.7,18.6,30.07,NNW,331,5.0,15.0,58,0.05,,,0.08,Wunderground v.1.15,2013-02-09 19:16:00,
2013-02-09 14:21:00,31.7,18.6,30.07,NW,311,5.0,7.0,58,0.00,,,0.08,Wunderground v.1.15,2013-02-09 19:21:00,
2013-02-09 14:27:00,31.5,18.8,30.08,NW,326,3.0,11.0,59,0.00,,,0.09,Wunderground v.1.15,2013-02-09 19:27:00,
2013-02-09 14:32:00,31.7,16.9,30.08,West,265,4.0,4.0,54,0.07,,,0.09,Wunderground v.1.15,2013-02-09 19:32:00,
2013-02-09 14:37:00,31.9,17.5,30.08,NNW,340,7.0,12.0,55,0.07,,,0.10,Wunderground v.1.15,2013-02-09 19:37:00,
2013-02-09 14:42:00,32.0,17.2,30.08,NNW,335,5.0,8.0,54,0.06,,,0.10,Wunderground v.1.15,2013-02-09 19:42:00,
2013-02-09 14:47:00,32.1,16.0,30.08,NW,318,3.0,8.0,51,0.04,,,0.10,Wunderground v.1.15,2013-02-09 19:47:00,
2013-02-09 14:52:00,32.2,17.0,30.08,NW,308,1.0,3.0,53,0.00,,,0.11,Wunderground v.1.15,2013-02-09 19:52:00,
2013-02-09 14:57:00,32.1,16.9,30.09,WNW,300,3.0,9.0,53,0.00,,,0.11,Wunderground v.1.15,2013-02-09 19:57:00,
2013-02-09 15:02:00,31.7,16.1,30.09,North,352,2.0,5.0,52,0.09,,,0.12,Wunderground v.1.15,2013-02-09 20:02:00,
2013-02-09 15:07:00,31.4,17.1,30.09,NW,306,1.0,7.0,55,0.07,,,0.12,Wunderground v.1.15,2013-02-09 20:07:00,
2013-02-09 15:12:00,31.5,14.0,30.09,WNW,302,2.0,4.0,48,0.05,,,0.13,Wunderground v.1.15,2013-02-09 20:12:00,
2013-02-09 15:17:00,31.3,15.7,30.09,NW,326,6.0,11.0,52,0.05,,,0.13,Wunderground v.1.15,2013-02-09 20:17:00,
2013-02-09 15:22:00,31.1,15.1,30.09,NE,34,1.0,4.0,51,0.05,,,0.13,Wunderground v.1.15,2013-02-09 20:22:00,
2013-02-09 15:27:00,31.3,14.8,30.09,NNW,346,3.0,8.0,50,0.00,,,0.13,Wunderground v.1.15,2013-02-09 20:27:00,
2013-02-09 15:32:00,31.2,14.2,30.09,North,359,3.0,6.0,49,0.00,,,0.13,Wunderground v.1.15,2013-02-09 20:32:00,
2013-02-09 15:37:00,31.2,14.7,30.10,North,358,3.0,6.0,50,0.00,,,0.13,Wunderground v.1.15,2013-02-09 20:37:00,
2013-02-09 15:42:00,31.3,14.3,30.10,North,358,7.0,7.0,49,0.00,,,0.13,Wunderground v.1.15,2013-02-09 20:42:00,
2013-02-09 15:47:00,31.2,13.3,30.11,North,357,2.0,9.0,47,0.00,,,0.13,Wunderground v.1.15,2013-02-09 20:47:00,
2013-02-09 15:53:00,31.2,14.7,30.11,NNW,344,4.0,4.0,50,0.00,,,0.13,Wunderground v.1.15,2013-02-09 20:53:00,
2013-02-09 16:01:00,31.1,12.7,30.11,WNW,302,4.0,4.0,46,0.00,,,0.13,Wunderground v.1.15,2013-02-09 21:01:00,
2013-02-09 16:06:00,30.9,13.0,30.11,NW,319,3.0,7.0,47,0.00,,,0.14,Wunderground v.1.15,2013-02-09 21:06:00,
2013-02-09 16:11:00,30.8,13.9,30.11,NNW,329,5.0,12.0,49,0.00,,,0.14,Wunderground v.1.15,2013-02-09 21:11:00,
2013-02-09 16:16:00,30.8,12.9,30.12,NNW,346,7.0,12.0,47,0.00,,,0.14,Wunderground v.1.15,2013-02-09 21:16:00,
2013-02-09 16:21:00,30.7,11.8,30.12,West,267,3.0,5.0,45,0.00,,,0.14,Wunderground v.1.15,2013-02-09 21:21:00,
2013-02-09 16:26:00,30.7,12.3,30.13,North,350,1.0,6.0,46,0.00,,,0.14,Wunderground v.1.15,2013-02-09 21:26:00,
2013-02-09 16:31:00,30.4,12.1,30.13,North,354,5.0,8.0,46,0.00,,,0.14,Wunderground v.1.15,2013-02-09 21:31:00,
2013-02-09 16:36:00,30.2,11.4,30.13,South,181,2.0,8.0,45,0.00,,,0.14,Wunderground v.1.15,2013-02-09 21:36:00,
2013-02-09 16:41:00,30.1,10.8,30.14,NNW,328,3.0,5.0,44,0.00,,,0.14,Wunderground v.1.15,2013-02-09 21:41:00,
2013-02-09 16:47:00,30.0,11.2,30.14,NNW,330,3.0,5.0,45,0.00,,,0.14,Wunderground v.1.15,2013-02-09 21:47:00,
2013-02-09 16:52:00,29.8,11.0,30.14,North,357,3.0,3.0,45,0.00,,,0.14,Wunderground v.1.15,2013-02-09 21:52:00,
2013-02-09 16:57:00,29.5,10.7,30.15,West,273,4.0,10.0,45,0.00,,,0.14,Wunderground v.1.15,2013-02-09 21:57:00,
2013-02-09 17:02:00,29.4,11.1,30.15,North,3,1.0,9.0,46,0.00,,,0.14,Wunderground v.1.15,2013-02-09 22:02:00,
2013-02-09 17:07:00,29.3,10.6,30.15,NNW,336,2.0,9.0,45,0.00,,,0.14,Wunderground v.1.15,2013-02-09 22:07:00,
2013-02-09 17:12:00,29.1,10.4,30.16,NNW,333,4.0,8.0,45,0.00,,,0.14,Wunderground v.1.15,2013-02-09 22:12:00,
2013-02-09 17:17:00,29.0,10.3,30.16,NNW,336,3.0,11.0,45,0.00,,,0.14,Wunderground v.1.15,2013-02-09 22:17:00,
2013-02-09 17:22:00,28.9,10.7,30.16,NNW,340,2.0,3.0,46,0.00,,,0.14,Wunderground v.1.15,2013-02-09 22:22:00,
2013-02-09 17:28:00,28.7,11.0,30.16,NNW,340,4.0,4.0,47,0.00,,,0.14,Wunderground v.1.15,2013-02-09 22:28:00,
2013-02-09 17:33:00,28.6,10.9,30.17,NW,317,0.0,2.0,47,0.00,,,0.14,Wunderground v.1.15,2013-02-09 22:33:00,
2013-02-09 17:38:00,28.4,11.2,30.17,NNW,338,2.0,7.0,48,0.00,,,0.14,Wunderground v.1.15,2013-02-09 22:38:00,
2013-02-09 17:43:00,28.4,10.7,30.18,NNW,338,1.0,6.0,47,0.00,,,0.14,Wunderground v.1.15,2013-02-09 22:43:00,
2013-02-09 17:48:00,28.4,10.2,30.18,NNW,327,3.0,8.0,46,0.00,,,0.14,Wunderground v.1.15,2013-02-09 22:48:00,
2013-02-09 17:53:00,28.3,10.1,30.18,North,356,4.0,5.0,46,0.00,,,0.14,Wunderground v.1.15,2013-02-09 22:53:00,
2013-02-09 17:58:00,28.1,9.5,30.19,NW,317,1.0,7.0,45,0.00,,,0.14,Wunderground v.1.15,2013-02-09 22:58:00,
2013-02-09 18:03:00,28.1,9.5,30.18,NW,310,4.0,6.0,45,0.00,,,0.14,Wunderground v.1.15,2013-02-09 23:03:00,
2013-02-09 18:08:00,28.0,9.4,30.19,NNW,342,6.0,11.0,45,0.00,,,0.14,Wunderground v.1.15,2013-02-09 23:08:00,
2013-02-09 18:13:00,27.9,9.3,30.19,NW,306,3.0,8.0,45,0.00,,,0.14,Wunderground v.1.15,2013-02-09 23:13:00,
2013-02-09 18:18:00,27.8,9.7,30.19,NNW,331,1.0,8.0,46,0.00,,,0.14,Wunderground v.1.15,2013-02-09 23:18:00,
2013-02-09 18:23:00,27.6,10.4,30.19,NNW,343,3.0,7.0,48,0.00,,,0.14,Wunderground v.1.15,2013-02-09 23:23:00,
2013-02-09 18:28:00,27.4,9.3,30.20,North,359,1.0,7.0,46,0.00,,,0.14,Wunderground v.1.15,2013-02-09 23:28:00,
2013-02-09 18:33:00,27.2,10.1,30.20,NW,304,3.0,3.0,48,0.00,,,0.14,Wunderground v.1.15,2013-02-09 23:33:00,
2013-02-09 18:38:00,27.3,10.6,30.20,NNW,332,3.0,6.0,49,0.00,,,0.14,Wunderground v.1.15,2013-02-09 23:38:00,
2013-02-09 18:46:00,27.2,9.1,30.21,NNW,348,1.0,7.0,46,0.00,,,0.14,Wunderground v.1.15,2013-02-09 23:46:00,
2013-02-09 18:51:00,27.1,10.0,30.21,NW,321,1.0,2.0,48,0.00,,,0.14,Wunderground v.1.15,2013-02-09 23:51:00,
2013-02-09 18:56:00,27.0,9.9,30.21,NNW,329,1.0,5.0,48,0.00,,,0.14,Wunderground v.1.15,2013-02-09 23:56:00,
2013-02-09 19:01:00,26.8,9.7,30.21,NNW,346,4.0,4.0,48,0.00,,,0.14,Wunderground v.1.15,2013-02-10 00:01:00,
2013-02-09 19:06:00,26.6,10.0,30.21,NNW,346,1.0,5.0,49,0.00,,,0.14,Wunderground v.1.15,2013-02-10 00:06:00,
2013-02-09 19:11:00,26.5,9.4,30.21,NW,324,4.0,7.0,48,0.00,,,0.14,Wunderground v.1.15,2013-02-10 00:11:00,
2013-02-09 19:16:00,26.5,9.9,30.22,NNW,346,2.0,7.0,49,0.00,,,0.14,Wunderground v.1.15,2013-02-10 00:16:00,
2013-02-09 19:21:00,26.4,9.3,30.22,NNW,333,3.0,4.0,48,0.00,,,0.14,Wunderground v.1.15,2013-02-10 00:21:00,
2013-02-09 19:26:00,26.2,10.1,30.22,NNW,343,2.0,7.0,50,0.00,,,0.14,Wunderground v.1.15,2013-02-10 00:26:00,
2013-02-09 19:31:00,26.1,10.0,30.22,NE,43,1.0,2.0,50,0.00,,,0.14,Wunderground v.1.15,2013-02-10 00:31:00,
2013-02-09 19:36:00,25.8,10.1,30.23,North,8,2.0,3.0,51,0.00,,,0.14,Wunderground v.1.15,2013-02-10 00:36:00,
2013-02-09 19:41:00,25.6,10.0,30.23,East,83,2.0,2.0,51,0.00,,,0.14,Wunderground v.1.15,2013-02-10 00:41:00,
2013-02-09 19:46:00,25.4,9.3,30.24,NNE,24,0.0,4.0,50,0.00,,,0.14,Wunderground v.1.15,2013-02-10 00:46:00,
2013-02-09 19:51:00,25.3,9.7,30.24,NNW,332,3.0,8.0,51,0.00,,,0.14,Wunderground v.1.15,2013-02-10 00:51:00,
2013-02-09 19:56:00,25.2,9.1,30.24,North,8,3.0,8.0,50,0.00,,,0.14,Wunderground v.1.15,2013-02-10 00:56:00,
2013-02-09 20:01:00,25.1,9.9,30.25,East,84,0.0,2.0,52,0.00,,,0.14,Wunderground v.1.15,2013-02-10 01:01:00,
2013-02-09 20:06:00,25.0,9.0,30.25,North,9,0.0,4.0,50,0.00,,,0.14,Wunderground v.1.15,2013-02-10 01:06:00,
2013-02-09 20:11:00,25.0,9.4,30.26,North,7,1.0,2.0,51,0.00,,,0.14,Wunderground v.1.15,2013-02-10 01:11:00,
2013-02-09 20:16:00,24.9,8.4,30.26,NNW,327,3.0,3.0,49,0.00,,,0.14,Wunderground v.1.15,2013-02-10 01:16:00,
2013-02-09 20:21:00,24.9,8.9,30.26,North,353,1.0,3.0,50,0.00,,,0.14,Wunderground v.1.15,2013-02-10 01:21:00,
2013-02-09 20:27:00,24.8,8.8,30.26,WNW,302,1.0,3.0,50,0.00,,,0.14,Wunderground v.1.15,2013-02-10 01:27:00,
2013-02-09 20:32:00,24.7,8.7,30.27,NW,320,2.0,5.0,50,0.00,,,0.14,Wunderground v.1.15,2013-02-10 01:32:00,
2013-02-09 20:37:00,24.6,8.1,30.27,NNW,342,1.0,7.0,49,0.00,,,0.14,Wunderground v.1.15,2013-02-10 01:37:00,
2013-02-09 20:42:00,24.5,8.5,30.27,West,274,1.0,2.0,50,0.00,,,0.14,Wunderground v.1.15,2013-02-10 01:42:00,
2013-02-09 20:47:00,24.4,8.8,30.27,West,264,2.0,3.0,51,0.00,,,0.14,Wunderground v.1.15,2013-02-10 01:47:00,
2013-02-09 20:52:00,24.2,8.2,30.28,NNW,344,0.0,1.0,50,0.00,,,0.14,Wunderground v.1.15,2013-02-10 01:52:00,
2013-02-09 20:57:00,24.0,8.5,30.28,NW,307,1.0,2.0,51,0.00,,,0.14,Wunderground v.1.15,2013-02-10 01:57:00,
2013-02-09 21:02:00,23.9,8.8,30.29,North,360,0.0,1.0,52,0.00,,,0.14,Wunderground v.1.15,2013-02-10 02:02:00,
2013-02-09 21:07:00,23.7,9.0,30.29,NNE,21,3.0,3.0,53,0.00,,,0.14,Wunderground v.1.15,2013-02-10 02:07:00,
2013-02-09 21:12:00,23.6,8.1,30.30,North,3,0.0,5.0,51,0.00,,,0.14,Wunderground v.1.15,2013-02-10 02:12:00,
2013-02-09 21:17:00,23.6,8.5,30.31,NNW,342,2.0,5.0,52,0.00,,,0.14,Wunderground v.1.15,2013-02-10 02:17:00,
2013-02-09 21:22:00,23.5,8.9,30.31,NW,325,0.0,2.0,53,0.00,,,0.14,Wunderground v.1.15,2013-02-10 02:22:00,
2013-02-09 21:27:00,23.4,8.3,30.31,NNW,339,2.0,3.0,52,0.00,,,0.14,Wunderground v.1.15,2013-02-10 02:27:00,
2013-02-09 21:32:00,23.3,8.7,30.31,North,352,0.0,1.0,53,0.00,,,0.14,Wunderground v.1.15,2013-02-10 02:32:00,
2013-02-09 21:37:00,23.2,8.2,30.32,North,352,0.0,3.0,52,0.00,,,0.14,Wunderground v.1.15,2013-02-10 02:37:00,
2013-02-09 21:42:00,23.1,8.5,30.32,North,3,0.0,3.0,53,0.00,,,0.14,Wunderground v.1.15,2013-02-10 02:42:00,
2013-02-09 21:47:00,23.1,8.1,30.32,NNW,329,1.0,12.0,52,0.00,,,0.14,Wunderground v.1.15,2013-02-10 02:47:00,
2013-02-09 21:52:00,23.0,8.4,30.32,NW,319,4.0,7.0,53,0.00,,,0.14,Wunderground v.1.15,2013-02-10 02:52:00,
2013-02-09 21:57:00,22.9,8.3,30.32,NNW,348,1.0,7.0,53,0.00,,,0.14,Wunderground v.1.15,2013-02-10 02:57:00,
2013-02-09 22:02:00,22.8,8.6,30.32,NW,325,2.0,8.0,54,0.00,,,0.14,Wunderground v.1.15,2013-02-10 03:02:00,
2013-02-09 22:07:00,22.7,8.5,30.32,North,349,1.0,8.0,54,0.00,,,0.14,Wunderground v.1.15,2013-02-10 03:07:00,
2013-02-09 22:12:00,22.6,8.0,30.32,NNW,331,2.0,3.0,53,0.00,,,0.14,Wunderground v.1.15,2013-02-10 03:12:00,
2013-02-09 22:17:00,22.5,8.3,30.32,North,359,0.0,7.0,54,0.00,,,0.14,Wunderground v.1.15,2013-02-10 03:17:00,
2013-02-09 22:23:00,22.3,8.6,30.32,North,3,1.0,4.0,55,0.00,,,0.14,Wunderground v.1.15,2013-02-10 03:23:00,
2013-02-09 22:28:00,22.2,8.5,30.33,East,96,0.0,4.0,55,0.00,,,0.14,Wunderground v.1.15,2013-02-10 03:28:00,
2013-02-09 22:33:00,22.0,8.7,30.33,NNW,348,0.0,3.0,56,0.00,,,0.14,Wunderground v.1.15,2013-02-10 03:33:00,
2013-02-09 22:38:00,21.8,8.5,30.33,North,353,2.0,3.0,56,0.00,,,0.14,Wunderground v.1.15,2013-02-10 03:38:00,
2013-02-09 22:43:00,21.7,8.0,30.33,NNW,333,3.0,3.0,55,0.00,,,0.14,Wunderground v.1.15,2013-02-10 03:43:00,
2013-02-09 22:48:00,21.7,8.8,30.33,NNW,342,0.0,3.0,57,0.00,,,0.14,Wunderground v.1.15,2013-02-10 03:48:00,
2013-02-09 22:53:00,21.6,8.3,30.34,NNW,342,0.0,1.0,56,0.00,,,0.14,Wunderground v.1.15,2013-02-10 03:53:00,
2013-02-09 22:58:00,21.4,8.5,30.34,NNW,342,1.0,4.0,57,0.00,,,0.14,Wunderground v.1.15,2013-02-10 03:58:00,
2013-02-09 23:03:00,21.3,8.0,30.34,NNW,340,0.0,2.0,56,0.00,,,0.14,Wunderground v.1.15,2013-02-10 04:03:00,
2013-02-09 23:11:00,21.2,8.3,30.34,NNW,331,0.0,1.0,57,0.00,,,0.14,Wunderground v.1.15,2013-02-10 04:11:00,
2013-02-09 23:16:00,21.0,8.5,30.34,NNW,331,0.0,2.0,58,0.00,,,0.14,Wunderground v.1.15,2013-02-10 04:16:00,
2013-02-09 23:21:00,20.8,8.3,30.34,NNW,338,1.0,1.0,58,0.00,,,0.14,Wunderground v.1.15,2013-02-10 04:21:00,
2013-02-09 23:26:00,20.7,8.6,30.35,NNW,338,0.0,2.0,59,0.00,,,0.14,Wunderground v.1.15,2013-02-10 04:26:00,
2013-02-09 23:31:00,20.6,8.5,30.35,NNW,338,0.0,0.0,59,0.00,,,0.14,Wunderground v.1.15,2013-02-10 04:31:00,
2013-02-09 23:36:00,20.4,8.3,30.36,NNW,338,1.0,1.0,59,0.00,,,0.14,Wunderground v.1.15,2013-02-10 04:36:00,
2013-02-09 23:41:00,20.3,9.0,30.36,NNW,338,0.0,0.0,61,0.00,,,0.14,Wunderground v.1.15,2013-02-10 04:41:00,
2013-02-09 23:46:00,20.1,8.8,30.36,NNW,338,0.0,2.0,61,0.00,,,0.14,Wunderground v.1.15,2013-02-10 04:46:00,
2013-02-09 23:51:00,20.0,8.7,30.36,NNW,338,0.0,2.0,61,0.00,,,0.14,Wunderground v.1.15,2013-02-10 04:51:00,
2013-02-09 23:56:00,19.9,8.6,30.36,NNW,338,0.0,2.0,61,0.00,,,0.14,Wunderground v.1.15,2013-02-10 04:56:00,